tititudorancea.com
Station Historical Data
Daily Summary for February 13, 2019 Units:  Metric    English   Both
« Previous Day
Next Day »
Daily Weekly Monthly Yearly Custom
  High: Low: Average:
Temperature: -17.8 °C 9.2 °C 13 °C
Dew Point: -17.8 °C 2.5 °C 4.4 °C
Humidity: Humidity % 35 % 57 %
Wind Speed: 0 km/h 0 km/h 14.3 km/h
Wind Gust: 0 km/h - -
Wind:- - WSW
Pressure: 0 hPa 1002.9 hPa -
Precipitation: 0 mm    
Historical Graphs
 
 
Ararat weather Find more about Weather in Ararat, AU


 



 


Tabular Data for February 13, 2019
Time Temperature Dew Point Pressure Wind Wind Speed Wind Gust Humidity Rainfall Rate (Hourly)
-17.8 °C -17.8 °C 0 hPa Calm     Humidity % 0 mm
00:00 11.4 °C 2.7 °C 1002.9 hPa West 4.8 km/h 11.3 km/h 55 % 0 mm
00:04 11.1 °C 3.4 °C 1004.3 hPa West 18.5 km/h 6.6 km/h 59 % 0 mm
00:05 11.4 °C 2.9 °C 1003.3 hPa West 9.7 km/h 12.9 km/h 56 % 0 mm
00:09 11 °C 3.5 °C 1004.3 hPa West 8 km/h 7.1 km/h 60 % 0 mm
00:10 11.4 °C 2.9 °C 1003.3 hPa West 4.8 km/h 12.9 km/h 56 % 0 mm
00:14 10.9 °C 3.5 °C 1004.3 hPa West 9.3 km/h 6.3 km/h 60 % 0 mm
00:15 11.3 °C 3.1 °C 1003.3 hPa West 4.8 km/h 8 km/h 57 % 0 mm
00:19 10.9 °C 3.5 °C 1004.3 hPa West 8 km/h 4.3 km/h 60 % 0 mm
00:20 11.1 °C 3.2 °C 1003.3 hPa West 3.2 km/h 6.4 km/h 58 % 0 mm
00:24 10.9 °C 3.5 °C 1004.3 hPa West 6.4 km/h 5.8 km/h 60 % 0 mm
00:25 11 °C 3.1 °C 1003.6 hPa West 3.2 km/h 9.7 km/h 58 % 0 mm
00:29 10.9 °C 3.4 °C 1004.3 hPa West 6.4 km/h 3.4 km/h 60 % 0 mm
00:30 10.9 °C 3 °C 1003.6 hPa West 4.8 km/h 6.4 km/h 58 % 0 mm
00:34 10.8 °C 3.4 °C 1004.3 hPa West 5.6 km/h 2.7 km/h 60 % 0 mm
00:35 10.9 °C 3.2 °C 1003.6 hPa West 4.8 km/h 9.7 km/h 59 % 0 mm
00:39 10.8 °C 3.3 °C 1004.6 hPa West 3.7 km/h 2.4 km/h 60 % 0 mm
00:40 10.8 °C 3.1 °C 1003.6 hPa West 3.2 km/h 8 km/h 59 % 0 mm
00:44 10.8 °C 3.6 °C 1004.6 hPa West 8 km/h 8.4 km/h 61 % 0 mm
00:45 10.7 °C 3.3 °C 1003.9 hPa West 4.8 km/h 6.4 km/h 60 % 0 mm
00:49 10.9 °C 3.7 °C 1004.6 hPa West 9.3 km/h 7.7 km/h 61 % 0 mm
00:50 10.6 °C 3.3 °C 1003.9 hPa West 4.8 km/h 6.4 km/h 61 % 0 mm
00:54 11 °C 3.8 °C 1004.6 hPa West 16.7 km/h 11.9 km/h 61 % 0 mm
00:55 10.5 °C 3.5 °C 1003.9 hPa West 4.8 km/h 6.4 km/h 62 % 0 mm
00:59 11.1 °C 3.8 °C 1004.6 hPa West 22.2 km/h 13.4 km/h 61 % 0 mm
01:00 10.3 °C 3.3 °C 1003.9 hPa West 4.8 km/h 6.4 km/h 62 % 0 mm
01:04 11.2 °C 3.9 °C 1004.6 hPa West 9.3 km/h 5.6 km/h 61 % 0 mm
01:05 10.3 °C 3.3 °C 1004.3 hPa West 4.8 km/h 8 km/h 62 % 0 mm
01:09 11.1 °C 3.9 °C 1005 hPa WNW 14.8 km/h 8.7 km/h 61 % 0 mm
01:10 10.4 °C 3.2 °C 1004.3 hPa West 1.6 km/h 8 km/h 61 % 0 mm
01:14 11.1 °C 3.9 °C 1004.6 hPa WNW 18.5 km/h 10.5 km/h 61 % 0 mm
01:15 10.6 °C 3.3 °C 1004.3 hPa West 8 km/h 14.5 km/h 61 % 0 mm
01:19 11.1 °C 4.1 °C 1005 hPa West 9.7 km/h 5.5 km/h 62 % 0 mm
01:20 10.9 °C 3.2 °C 1004.3 hPa West 9.7 km/h 19.3 km/h 59 % 0 mm
01:24 10.9 °C 4.1 °C 1005 hPa West 18.5 km/h 10.5 km/h 63 % 0 mm
01:25 10.9 °C 3 °C 1004.3 hPa WSW 4.8 km/h 9.7 km/h 58 % 0 mm
01:29 10.8 °C 4.1 °C 1005 hPa West 13 km/h 10.9 km/h 63 % 0 mm
01:30 10.9 °C 2.9 °C 1004.3 hPa WSW 4.8 km/h 11.3 km/h 58 % 0 mm
01:34 10.8 °C 4 °C 1005 hPa West 9.7 km/h 9.5 km/h 63 % 0 mm
01:35 10.9 °C 3 °C 1004.3 hPa WSW 4.8 km/h 12.9 km/h 58 % 0 mm
01:39 10.7 °C 3.9 °C 1005 hPa West 14.5 km/h 7.9 km/h 63 % 0 mm
01:40 10.9 °C 3 °C 1004.3 hPa WSW 4.8 km/h 14.5 km/h 58 % 0 mm
01:44 10.7 °C 4.2 °C 1005 hPa West 14.8 km/h 10.8 km/h 64 % 0 mm
01:45 10.9 °C 2.9 °C 1004.3 hPa WSW 8 km/h 12.9 km/h 58 % 0 mm
01:49 10.6 °C 4.1 °C 1005 hPa West 13 km/h 6.9 km/h 64 % 0 mm
01:50 10.9 °C 3 °C 1004.3 hPa WSW 14.5 km/h 22.5 km/h 58 % 0 mm
01:54 10.6 °C 4.3 °C 1005 hPa West 11.1 km/h 8.2 km/h 65 % 0 mm
01:55 11.1 °C 3.2 °C 1004.3 hPa West 4.8 km/h 12.9 km/h 58 % 0 mm
01:59 10.6 °C 4.3 °C 1005 hPa West 14.8 km/h 8 km/h 65 % 0 mm
02:00 11.1 °C 3.2 °C 1004.3 hPa West 4.8 km/h 14.5 km/h 58 % 0 mm
02:04 10.6 °C 4.5 °C 1005 hPa West 18.5 km/h 12.1 km/h 66 % 0 mm
02:05 11.1 °C 3.3 °C 1004.3 hPa West 8 km/h 19.3 km/h 59 % 0 mm
02:09 10.7 °C 4.6 °C 1005 hPa WNW 16.7 km/h 11.4 km/h 66 % 0 mm
02:10 11.1 °C 3.4 °C 1004.6 hPa West 9.7 km/h 19.3 km/h 59 % 0 mm
02:14 10.6 °C 4.5 °C 1005 hPa West 24.1 km/h 16.3 km/h 66 % 0 mm
02:15 11 °C 3.5 °C 1004.3 hPa West 9.7 km/h 14.5 km/h 60 % 0 mm
02:19 10.6 °C 4.4 °C 1005 hPa West 22.2 km/h 17.7 km/h 66 % 0 mm
02:20 11 °C 3.5 °C 1004.3 hPa West 11.3 km/h 14.5 km/h 60 % 0 mm
02:24 10.4 °C 4.6 °C 1005 hPa West 11.1 km/h 10 km/h 67 % 0 mm
02:25 10.9 °C 3.5 °C 1004.3 hPa West 8 km/h 12.9 km/h 60 % 0 mm
02:29 10.3 °C 4.4 °C 1005 hPa West 13 km/h 8.5 km/h 67 % 0 mm
02:30 10.9 °C 3.4 °C 1004.3 hPa West 4.8 km/h 9.7 km/h 60 % 0 mm
02:34 10.3 °C 4.4 °C 1005 hPa West 18.5 km/h 14.6 km/h 67 % 0 mm
02:35 10.8 °C 3.4 °C 1004.3 hPa Calm   6.4 km/h 60 % 0 mm
02:39 10.2 °C 4.6 °C 1005 hPa WNW 14.8 km/h 10.6 km/h 68 % 0 mm
02:40 10.8 °C 3.6 °C 1004.6 hPa West 4.8 km/h 9.7 km/h 61 % 0 mm
02:44 10.2 °C 4.5 °C 1005 hPa West 22.5 km/h 15.6 km/h 68 % 0 mm
02:45 10.8 °C 3.3 °C 1004.6 hPa West 1.6 km/h 6.4 km/h 60 % 0 mm
02:49 10.2 °C 4.5 °C 1005 hPa West 11.1 km/h 8.7 km/h 68 % 0 mm
02:50 10.8 °C 3.6 °C 1004.6 hPa West 8 km/h 11.3 km/h 61 % 0 mm
02:54 10.1 °C 4.7 °C 1005 hPa West 20.4 km/h 9.3 km/h 69 % 0 mm
02:55 10.9 °C 3.7 °C 1004.6 hPa West 9.7 km/h 14.5 km/h 61 % 0 mm
02:59 10.1 °C 4.7 °C 1005 hPa West 14.8 km/h 13.7 km/h 69 % 0 mm
03:00 11.1 °C 3.8 °C 1004.6 hPa West 4.8 km/h 16.1 km/h 61 % 0 mm
03:04 10.2 °C 5 °C 1005.3 hPa West 14.5 km/h 12.6 km/h 70 % 0 mm
03:05 11.1 °C 3.6 °C 1004.6 hPa West 9.7 km/h 22.5 km/h 60 % 0 mm
03:09 10.2 °C 5 °C 1005.3 hPa West 12.9 km/h 9.2 km/h 70 % 0 mm
03:10 11.1 °C 3.9 °C 1004.6 hPa West 8 km/h 12.9 km/h 61 % 0 mm
03:14 10.2 °C 5 °C 1005.3 hPa WSW 20.4 km/h 13 km/h 70 % 0 mm
03:15 11.1 °C 3.9 °C 1004.6 hPa West 11.3 km/h 19.3 km/h 61 % 0 mm
03:19 10.2 °C 4.9 °C 1005.3 hPa WSW 22.2 km/h 15.6 km/h 70 % 0 mm
03:20 11.1 °C 3.9 °C 1004.6 hPa WNW 9.7 km/h 17.7 km/h 61 % 0 mm
03:24 10.2 °C 4.9 °C 1005.3 hPa WSW 18.5 km/h 12.6 km/h 70 % 0 mm
03:25 11 °C 4 °C 1005 hPa West 8 km/h 11.3 km/h 62 % 0 mm
03:29 10.1 °C 5.1 °C 1005.3 hPa WSW 11.3 km/h 7.9 km/h 71 % 0 mm
03:30 10.9 °C 4.1 °C 1005 hPa West 8 km/h 17.7 km/h 63 % 0 mm
03:34 10.1 °C 5.1 °C 1005.3 hPa WSW 16.1 km/h 11.7 km/h 71 % 0 mm
03:35 10.8 °C 4.1 °C 1005 hPa West 8 km/h 14.5 km/h 63 % 0 mm
03:39 10.1 °C 5.1 °C 1005.3 hPa WSW 11.1 km/h 7.1 km/h 71 % 0 mm
03:40 10.8 °C 4 °C 1005 hPa West 9.7 km/h 16.1 km/h 63 % 0 mm
03:44 10 °C 5.2 °C 1005.3 hPa WSW 14.5 km/h 8.2 km/h 72 % 0 mm
03:45 10.7 °C 3.9 °C 1005 hPa West 9.7 km/h 14.5 km/h 63 % 0 mm
03:49 10 °C 5.2 °C 1005.3 hPa West 11.3 km/h 9 km/h 72 % 0 mm
03:50 10.7 °C 4.1 °C 1005 hPa West 11.3 km/h 20.9 km/h 64 % 0 mm
03:54 10.1 °C 5.2 °C 1005.6 hPa West 9.3 km/h 7.1 km/h 72 % 0 mm
03:55 10.6 °C 4.3 °C 1005 hPa West 9.7 km/h 12.9 km/h 65 % 0 mm
03:59 10.1 °C 5.4 °C 1005.6 hPa WNW 20.9 km/h 15 km/h 73 % 0 mm
04:00 10.6 °C 4.2 °C 1005 hPa West 11.3 km/h 16.1 km/h 65 % 0 mm
04:04 10.1 °C 5.3 °C 1005.6 hPa West 20.4 km/h 15.4 km/h 72 % 0 mm
04:05 10.6 °C 4.3 °C 1005 hPa West 11.3 km/h 14.5 km/h 65 % 0 mm
04:09 10.1 °C 5.3 °C 1005.6 hPa West 14.5 km/h 11.7 km/h 72 % 0 mm
04:10 10.7 °C 4.6 °C 1005 hPa West 11.3 km/h 19.3 km/h 66 % 0 mm
04:14 10.1 °C 5.3 °C 1005.6 hPa West 14.8 km/h 11.1 km/h 72 % 0 mm
04:15 10.7 °C 4.6 °C 1005 hPa West 12.9 km/h 17.7 km/h 66 % 0 mm
04:19 10.1 °C 5.2 °C 1005.6 hPa West 17.7 km/h 11.6 km/h 72 % 0 mm
04:20 10.6 °C 4.5 °C 1005 hPa WNW 12.9 km/h 24.1 km/h 66 % 0 mm
04:24 10 °C 5.2 °C 1005.6 hPa West 14.8 km/h 9 km/h 72 % 0 mm
04:25 10.6 °C 4.4 °C 1005 hPa West 11.3 km/h 22.5 km/h 66 % 0 mm
04:29 10 °C 5.2 °C 1005.6 hPa West 18.5 km/h 11.1 km/h 72 % 0 mm
04:30 10.4 °C 4.5 °C 1005 hPa West 11.3 km/h 16.1 km/h 67 % 0 mm
04:34 9.9 °C 5.1 °C 1006 hPa West 16.7 km/h 9.7 km/h 72 % 0 mm
04:35 10.3 °C 4.4 °C 1005 hPa West 14.5 km/h 20.9 km/h 67 % 0 mm
04:39 9.9 °C 5.3 °C 1006 hPa West 16.7 km/h 11.6 km/h 73 % 0 mm
04:40 10.3 °C 4.4 °C 1005 hPa West 9.7 km/h 19.3 km/h 67 % 0 mm
04:44 9.8 °C 5.2 °C 1006 hPa West 9.7 km/h 8.4 km/h 73 % 0 mm
04:45 10.2 °C 4.6 °C 1005 hPa West 9.7 km/h 17.7 km/h 68 % 0 mm
04:49 9.7 °C 5.1 °C 1006 hPa WSW 18.5 km/h 10 km/h 73 % 0 mm
04:50 10.2 °C 4.5 °C 1005 hPa West 12.9 km/h 22.5 km/h 68 % 0 mm
04:54 9.7 °C 5.1 °C 1006 hPa WSW 18.5 km/h 10.9 km/h 73 % 0 mm
04:55 10.1 °C 4.7 °C 1005 hPa West 11.3 km/h 16.1 km/h 69 % 0 mm
04:59 9.6 °C 5 °C 1006 hPa WSW 16.7 km/h 8.4 km/h 73 % 0 mm
05:04 9.5 °C 4.9 °C 1006 hPa WSW 9.7 km/h 8.7 km/h 73 % 0 mm
05:09 9.4 °C 5.6 °C 1006.3 hPa WSW 14.8 km/h 9.5 km/h 77 % 0 mm
05:13 9.4 °C 5 °C 1006.3 hPa WSW 14.8 km/h 6.4 km/h 74 % 0 mm
07:41 9.2 °C 5.2 °C 1008.7 hPa Calm     76 % 0 mm
07:49 9.3 °C 5.3 °C 1009 hPa West 9.3 km/h 7.9 km/h 76 % 0 mm
07:55 9.3 °C 5.1 °C 1006.7 hPa WSW 8 km/h 12.9 km/h 75 % 0 mm
07:59 9.5 °C 5.3 °C 1009 hPa West 7.4 km/h 7.7 km/h 75 % 0 mm
08:04 9.6 °C 5.4 °C 1009.4 hPa West 11.3 km/h 7.1 km/h 75 % 0 mm
08:09 9.8 °C 5.6 °C 1009.4 hPa West 9.3 km/h 3.5 km/h 75 % 0 mm
08:14 9.9 °C 5.5 °C 1009.4 hPa West 7.4 km/h 4.8 km/h 74 % 0 mm
08:19 10.1 °C 5.9 °C 1009.7 hPa West 7.4 km/h 7.6 km/h 75 % 0 mm
08:24 10.2 °C 5.6 °C 1009.7 hPa West 9.3 km/h 7.6 km/h 73 % 0 mm
08:29 10.4 °C 5.8 °C 1009.7 hPa West 14.8 km/h 10.3 km/h 73 % 0 mm
08:34 10.6 °C 5.9 °C 1010 hPa WSW 14.8 km/h 9 km/h 73 % 0 mm
08:39 10.9 °C 6.1 °C 1010 hPa WSW 18.5 km/h 12.2 km/h 72 % 0 mm
08:44 11 °C 5.9 °C 1010 hPa WSW 16.7 km/h 16.7 km/h 71 % 0 mm
08:49 11 °C 5.7 °C 1010.4 hPa WSW 14.8 km/h 12.7 km/h 70 % 0 mm
08:54 11.2 °C 5.9 °C 1010.4 hPa West 22.2 km/h 12.9 km/h 70 % 0 mm
08:59 11.3 °C 6 °C 1010.4 hPa WSW 13 km/h 9.8 km/h 70 % 0 mm
09:04 11.4 °C 5.9 °C 1010.4 hPa West 14.8 km/h 10 km/h 69 % 0 mm
09:09 11.6 °C 5.8 °C 1010.4 hPa SW 18.5 km/h 15.4 km/h 68 % 0 mm
09:14 11.6 °C 5.4 °C 1010.7 hPa SSW 25.9 km/h 18 km/h 66 % 0 mm
09:19 11.7 °C 5.6 °C 1010.7 hPa SSW 22.2 km/h 12.6 km/h 66 % 0 mm
09:24 11.9 °C 5.7 °C 1010.7 hPa SW 18.5 km/h 9.2 km/h 66 % 0 mm
09:29 12.1 °C 5.9 °C 1010.7 hPa SSW 17.7 km/h 10.3 km/h 66 % 0 mm
09:34 12.3 °C 5.7 °C 1010.7 hPa SW 20.4 km/h 10.5 km/h 64 % 0 mm
09:39 12.5 °C 5.7 °C 1010.7 hPa SSW 20.4 km/h 12.2 km/h 63 % 0 mm
09:44 12.7 °C 5.6 °C 1011.1 hPa WSW 30.6 km/h 18.3 km/h 62 % 0 mm
09:49 12.2 °C 5.2 °C 1011.1 hPa WSW 20.9 km/h 18.3 km/h 62 % 0 mm
09:54 12 °C 5.2 °C 1011.1 hPa WSW 25.9 km/h 14.8 km/h 63 % 0 mm
09:59 12.3 °C 5.7 °C 1011.1 hPa North 16.7 km/h 12.6 km/h 64 % 0 mm
10:04 12.6 °C 5.7 °C 1011.4 hPa SSW 24.1 km/h 13.2 km/h 63 % 0 mm
10:09 12.7 °C 5.6 °C 1011.4 hPa West 19.3 km/h 17.9 km/h 62 % 0 mm
10:14 12.7 °C 5.4 °C 1011.4 hPa SW 14.8 km/h 10.3 km/h 61 % 0 mm
10:19 12.9 °C 5.6 °C 1011.4 hPa South 33.3 km/h 15.6 km/h 61 % 0 mm
10:24 13.3 °C 5.9 °C 1011.4 hPa SW 22.2 km/h 12.1 km/h 61 % 0 mm
10:29 13.2 °C 5.4 °C 1011.7 hPa West 16.1 km/h 15.9 km/h 59 % 0 mm
10:34 12.8 °C 5.3 °C 1011.7 hPa SSW 18.5 km/h 10.6 km/h 60 % 0 mm
10:39 12.7 °C 5.4 °C 1011.7 hPa SSW 18.5 km/h 15 km/h 61 % 0 mm
10:44 13 °C 5.4 °C 1011.7 hPa SW 20.4 km/h 18.5 km/h 60 % 0 mm
10:49 13.2 °C 5.1 °C 1011.7 hPa WSW 18.5 km/h 10.9 km/h 58 % 0 mm
10:54 13.4 °C 5.1 °C 1011.7 hPa SSW 20.4 km/h 11.4 km/h 57 % 0 mm
10:59 13.7 °C 4.8 °C 1011.7 hPa WSW 29.6 km/h 15.8 km/h 55 % 0 mm
11:04 13.7 °C 4.3 °C 1012.1 hPa WSW 20.4 km/h 14.8 km/h 53 % 0 mm
11:09 13.9 °C 4.8 °C 1012.1 hPa WSW 20.4 km/h 14.8 km/h 54 % 0 mm
11:14 13.8 °C 3.8 °C 1012.4 hPa SW 24.1 km/h 17.4 km/h 51 % 0 mm
11:19 13.8 °C 3.8 °C 1012.1 hPa SW 18.5 km/h 10 km/h 51 % 0 mm
11:24 13.7 °C 4 °C 1012.4 hPa WSW 25.9 km/h 15.9 km/h 52 % 0 mm
11:29 14.1 °C 4.3 °C 1012.1 hPa SW 25.9 km/h 19.5 km/h 52 % 0 mm
11:34 13.8 °C 4.1 °C 1012.4 hPa SW 24.1 km/h 20.4 km/h 52 % 0 mm
11:39 14.1 °C 3.8 °C 1012.4 hPa WSW 16.7 km/h 13.4 km/h 50 % 0 mm
11:44 15 °C 4.7 °C 1012.4 hPa SSW 16.7 km/h 10.9 km/h 50 % 0 mm
11:49 14.6 °C 3.4 °C 1012.4 hPa SW 29.6 km/h 17.2 km/h 47 % 0 mm
11:54 14.3 °C 4.3 °C 1012.4 hPa SSW 18.5 km/h 12.7 km/h 51 % 0 mm
11:59 14.6 °C 4.2 °C 1012.4 hPa SW 24.1 km/h 11.6 km/h 50 % 0 mm
12:04 14.5 °C 3.6 °C 1012.4 hPa WSW 27.8 km/h 20.9 km/h 48 % 0 mm
12:09 14.3 °C 3.4 °C 1012.4 hPa WSW 24.1 km/h 12.4 km/h 48 % 0 mm
12:14 14.7 °C 4.3 °C 1012.4 hPa SSW 22.2 km/h 18.3 km/h 50 % 0 mm
12:19 15.1 °C 4.7 °C 1012.4 hPa WSW 22.2 km/h 16.7 km/h 50 % 0 mm
12:24 15.2 °C 3.9 °C 1012.4 hPa SSW 16.7 km/h 14.2 km/h 47 % 0 mm
12:29 15.4 °C 4.8 °C 1012.4 hPa SSW 18.5 km/h 10.1 km/h 49 % 0 mm
12:34 15.6 °C 3.9 °C 1012.8 hPa WSW 25.9 km/h 16.3 km/h 46 % 0 mm
12:39 14.8 °C 3.3 °C 1012.4 hPa SW 16.7 km/h 11.1 km/h 46 % 0 mm
12:44 15.3 °C 3.8 °C 1012.4 hPa SSW 20.9 km/h 15.1 km/h 46 % 0 mm
12:49 15.6 °C 3.4 °C 1012.4 hPa SW 22.5 km/h 18.7 km/h 44 % 0 mm
12:54 14.9 °C 3.4 °C 1012.4 hPa SW 31.5 km/h 16.7 km/h 46 % 0 mm
12:59 15.4 °C 4.4 °C 1012.4 hPa West 18.5 km/h 16.6 km/h 48 % 0 mm
13:04 16.1 °C 3.8 °C 1012.4 hPa SSW 18.5 km/h 12.9 km/h 44 % 0 mm
13:09 16 °C 3.4 °C 1012.4 hPa SSW 20.4 km/h 8.9 km/h 43 % 0 mm
13:14 15.8 °C 3.6 °C 1012.4 hPa SSW 20.4 km/h 18 km/h 44 % 0 mm
13:19 15.3 °C 2.5 °C 1012.8 hPa SSW 24.1 km/h 14.2 km/h 42 % 0 mm
13:24 15.7 °C 3.2 °C 1012.8 hPa SW 14.8 km/h 17.1 km/h 43 % 0 mm
13:29 16.2 °C 2.6 °C 1012.4 hPa WSW 14.8 km/h 9.5 km/h 40 % 0 mm
13:34 16.2 °C 3.2 °C 1012.8 hPa WSW 25.7 km/h 22.7 km/h 42 % 0 mm
13:39 16.2 °C 3.3 °C 1012.4 hPa SW 20.4 km/h 19.3 km/h 42 % 0 mm
13:44 16.4 °C 3.8 °C 1012.4 hPa SW 18.5 km/h 16.4 km/h 43 % 0 mm
13:49 16.9 °C 4.2 °C 1012.8 hPa South 20.9 km/h 13.8 km/h 43 % 0 mm
13:54 17.1 °C 4.1 °C 1012.8 hPa SW 20.4 km/h 20.1 km/h 42 % 0 mm
13:59 17.1 °C 4.4 °C 1012.8 hPa WSW 25.7 km/h 15.6 km/h 43 % 0 mm
14:04 16.2 °C 4.2 °C 1012.8 hPa SSW 25.9 km/h 15.6 km/h 45 % 0 mm
14:09 15.9 °C 4.9 °C 1012.8 hPa SSW 16.7 km/h 12.6 km/h 48 % 0 mm
14:14 15.9 °C 3.9 °C 1012.8 hPa SSW 18.5 km/h 3.9 km/h 45 % 0 mm
14:19 16.8 °C 4.8 °C 1012.8 hPa SSW 19.3 km/h 14.8 km/h 45 % 0 mm
14:24 17.6 °C 5.2 °C 1012.8 hPa WSW 18.5 km/h 13.5 km/h 44 % 0 mm
14:29 17.3 °C 4.6 °C 1012.8 hPa SSW 20.4 km/h 12.4 km/h 43 % 0 mm
14:34 16.7 °C 4.7 °C 1012.8 hPa SW 18.5 km/h 14 km/h 45 % 0 mm
14:39 16.4 °C 5.1 °C 1012.8 hPa SW 24.1 km/h 13.4 km/h 47 % 0 mm
14:44 16.6 °C 4.9 °C 1012.8 hPa SSW 18.5 km/h 12.4 km/h 46 % 0 mm
14:49 16.8 °C 5.1 °C 1012.8 hPa West 27.8 km/h 13.7 km/h 46 % 0 mm
14:54 17 °C 5.3 °C 1013.1 hPa WSW 20.4 km/h 15.3 km/h 46 % 0 mm
14:59 17.5 °C 4.8 °C 1013.1 hPa SW 18.5 km/h 11.7 km/h 43 % 0 mm
15:04 17.3 °C 3.6 °C 1013.1 hPa WSW 27.8 km/h 18.3 km/h 40 % 0 mm
15:09 16.9 °C 4.2 °C 1013.1 hPa West 19.3 km/h 15.8 km/h 43 % 0 mm
15:14 16.6 °C 3.6 °C 1013.1 hPa SW 25.9 km/h 18.3 km/h 42 % 0 mm
15:19 16.6 °C 4.3 °C 1013.1 hPa SW 14.8 km/h 13.4 km/h 44 % 0 mm
15:24 16.6 °C 3.9 °C 1013.1 hPa SW 31.5 km/h 18.5 km/h 43 % 0 mm
15:29 16.9 °C 4.6 °C 1013.1 hPa South 20.9 km/h 16.9 km/h 44 % 0 mm
15:34 16.7 °C 4.1 °C 1013.1 hPa SSW 18.5 km/h 9.2 km/h 43 % 0 mm
15:39 16.7 °C 4.3 °C 1013.1 hPa SSW 25.9 km/h 16.3 km/h 44 % 0 mm
15:44 17 °C 4.7 °C 1012.8 hPa South 25.9 km/h 13.5 km/h 44 % 0 mm
15:49 17.5 °C 4.8 °C 1012.8 hPa SW 16.7 km/h 12.6 km/h 43 % 0 mm
15:54 17.3 °C 4.2 °C 1012.8 hPa SE 22.5 km/h 16.1 km/h 42 % 0 mm
15:59 17.3 °C 4.6 °C 1012.8 hPa South 22.2 km/h 16.6 km/h 43 % 0 mm
16:04 17.7 °C 4.9 °C 1012.8 hPa South 24.1 km/h 12.1 km/h 43 % 0 mm
16:09 17.8 °C 5 °C 1012.8 hPa SW 31.5 km/h 14.3 km/h 43 % 0 mm
16:14 17.3 °C 4.6 °C 1012.8 hPa South 25.9 km/h 17.9 km/h 43 % 0 mm
16:19 16.9 °C 4.9 °C 1012.8 hPa SSW 14.8 km/h 13.2 km/h 45 % 0 mm
16:24 17.6 °C 5.2 °C 1012.8 hPa SSW 24.1 km/h 12.7 km/h 44 % 0 mm
16:29 17.9 °C 5.2 °C 1012.8 hPa SSW 14.8 km/h 9.5 km/h 43 % 0 mm
16:34 17.8 °C 4.7 °C 1012.8 hPa SW 17.7 km/h 7.9 km/h 42 % 0 mm
16:39 18.2 °C 3.7 °C 1012.8 hPa WNW 16.1 km/h 10.5 km/h 38 % 0 mm
16:44 18.5 °C 3.9 °C 1012.8 hPa SW 25.9 km/h 14.5 km/h 38 % 0 mm
16:49 18.4 °C 3.1 °C 1012.8 hPa WSW 13 km/h 10.8 km/h 36 % 0 mm
16:54 18 °C 3.4 °C 1012.8 hPa SSW 20.4 km/h 14 km/h 38 % 0 mm
16:59 17.6 °C 3.8 °C 1012.8 hPa SSW 13 km/h 7.4 km/h 40 % 0 mm
17:04 17.7 °C 3.6 °C 1012.8 hPa South 18.5 km/h 12.2 km/h 39 % 0 mm
17:09 18.3 °C 3.8 °C 1012.8 hPa South 13 km/h 6.9 km/h 38 % 0 mm
17:14 19 °C 3.2 °C 1013.1 hPa SSW 29.6 km/h 16.3 km/h 35 % 0 mm
17:19 18.3 °C 3 °C 1013.1 hPa SSW 18.5 km/h 8.2 km/h 36 % 0 mm
17:24 17.9 °C 3.7 °C 1013.1 hPa South 18.5 km/h 10.1 km/h 39 % 0 mm
17:29 17.5 °C 3.7 °C 1013.1 hPa SSW 22.2 km/h 15.3 km/h 40 % 0 mm
17:34 17.3 °C 3.9 °C 1013.1 hPa SSW 11.3 km/h 4.8 km/h 41 % 0 mm
17:39 17.7 °C 3.9 °C 1013.1 hPa SSW 25.9 km/h 12.7 km/h 40 % 0 mm
17:44 17.7 °C 3.9 °C 1013.1 hPa SSE 16.1 km/h 12.6 km/h 40 % 0 mm
17:49 17.6 °C 3.8 °C 1013.1 hPa SSW 20.4 km/h 10.5 km/h 40 % 0 mm
17:54 18.1 °C 3.9 °C 1013.4 hPa SW 20.4 km/h 14.6 km/h 39 % 0 mm
17:59 18.2 °C 3.7 °C 1013.4 hPa SW 25.9 km/h 9.8 km/h 38 % 0 mm
18:04 17.9 °C 3.4 °C 1013.4 hPa SSW 14.8 km/h 8.7 km/h 38 % 0 mm
18:09 17.5 °C 3.7 °C 1013.4 hPa SSW 18.5 km/h 11.4 km/h 40 % 0 mm
18:14 17.2 °C 3.5 °C 1013.4 hPa SSW 13 km/h 10 km/h 40 % 0 mm
18:19 17.1 °C 3.7 °C 1013.4 hPa SW 13 km/h 14.2 km/h 41 % 0 mm
18:24 17.3 °C 3.9 °C 1013.4 hPa SSW 14.8 km/h 12.7 km/h 41 % 0 mm
18:29 17.7 °C 4.3 °C 1013.8 hPa SW 16.7 km/h 9.7 km/h 41 % 0 mm
18:34 17.4 °C 4.1 °C 1013.8 hPa SW 18.5 km/h 8.9 km/h 41 % 0 mm
18:39 17.2 °C 4.1 °C 1013.8 hPa SSW 17.7 km/h 15 km/h 42 % 0 mm
18:44 17.2 °C 4.1 °C 1013.8 hPa SSW 18.5 km/h 12.6 km/h 42 % 0 mm
18:49 17.3 °C 3.9 °C 1013.8 hPa SW 18.5 km/h 11.4 km/h 41 % 0 mm
18:54 17.6 °C 4.5 °C 1014.1 hPa SSW 22.5 km/h 14.2 km/h 42 % 0 mm
18:59 17.2 °C 4.2 °C 1014.1 hPa SSW 14.8 km/h 7.6 km/h 42 % 0 mm
19:04 17.1 °C 4.4 °C 1014.1 hPa SSW 6.4 km/h 3.9 km/h 43 % 0 mm
19:09 17.2 °C 4.2 °C 1014.1 hPa SSW 16.7 km/h 10.8 km/h 42 % 0 mm
19:14 17.3 °C 4.3 °C 1014.1 hPa SSW 20.4 km/h 13.7 km/h 42 % 0 mm
19:19 17.1 °C 4.4 °C 1014.1 hPa SSE 18.5 km/h 13.7 km/h 43 % 0 mm
19:24 16.7 °C 4.4 °C 1014.1 hPa SSW 16.7 km/h 9.5 km/h 44 % 0 mm
19:29 16.4 °C 4.4 °C 1014.1 hPa SSW 9.3 km/h 6.6 km/h 45 % 0 mm
19:34 16.5 °C 4.5 °C 1014.1 hPa SSW 7.4 km/h 4.5 km/h 45 % 0 mm
19:39 16.6 °C 4.6 °C 1014.1 hPa SSW 5.6 km/h 3.7 km/h 45 % 0 mm
19:44 16.6 °C 4.3 °C 1014.4 hPa SSW 12.9 km/h 10.1 km/h 44 % 0 mm
19:49 16.5 °C 4.5 °C 1014.4 hPa SSW 11.3 km/h 10.1 km/h 45 % 0 mm
19:54 16.3 °C 4 °C 1014.4 hPa SW 13 km/h 7.2 km/h 44 % 0 mm
19:59 16.1 °C 4.2 °C 1014.4 hPa SW 13 km/h 7.1 km/h 45 % 0 mm
20:04 16.1 °C 4.2 °C 1014.4 hPa SSW 11.1 km/h 8.7 km/h 45 % 0 mm
20:09 15.9 °C 4.3 °C 1014.8 hPa SSW 14.8 km/h 8.2 km/h 46 % 0 mm
20:14 15.8 °C 4.5 °C 1014.8 hPa SSW 11.1 km/h 6.3 km/h 47 % 0 mm
20:19 15.7 °C 4.1 °C 1014.8 hPa SSW 8 km/h 7.1 km/h 46 % 0 mm
20:22 15.6 °C 4.3 °C 1014.8 hPa SSW 11.1 km/h 6.1 km/h 47 % 0 mm
20:29 15.4 °C 4.4 °C 1014.8 hPa SSW 11.1 km/h 11.1 km/h 48 % 0 mm
20:39 15.1 °C 4.7 °C 1015.1 hPa SSW 11.3 km/h 8.5 km/h 50 % 0 mm
20:44 14.9 °C 4.8 °C 1015.1 hPa SSW 14.8 km/h 6.9 km/h 51 % 0 mm
20:49 14.7 °C 4.9 °C 1015.1 hPa SSW 11.1 km/h 9.5 km/h 52 % 0 mm
20:54 14.5 °C 5 °C 1015.1 hPa SSW 6.4 km/h 5.1 km/h 53 % 0 mm
20:59 14.4 °C 5.2 °C 1015.1 hPa SSW 9.3 km/h 8.7 km/h 54 % 0 mm
21:04 14.2 °C 5.3 °C 1015.5 hPa SSW 11.1 km/h 7.7 km/h 55 % 0 mm
21:09 14.1 °C 5.2 °C 1015.5 hPa SSW 6.4 km/h 4.7 km/h 55 % 0 mm
21:14 13.9 °C 5.3 °C 1015.5 hPa SSW 5.6 km/h 3.4 km/h 56 % 0 mm
21:19 13.8 °C 5.4 °C 1015.5 hPa SSW 5.6 km/h 4.8 km/h 57 % 0 mm
21:24 13.6 °C 5.2 °C 1015.8 hPa SSW 5.6 km/h 3.1 km/h 57 % 0 mm
21:29 13.4 °C 5.3 °C 1015.8 hPa SSW 5.6 km/h 4.5 km/h 58 % 0 mm
21:34 13.3 °C 5.5 °C 1015.8 hPa SSW 5.6 km/h 3.5 km/h 59 % 0 mm
21:39 13.2 °C 5.4 °C 1015.8 hPa SSW 5.6 km/h 3.9 km/h 59 % 0 mm
21:44 13.1 °C 5.5 °C 1016.1 hPa SSW 9.3 km/h 6.3 km/h 60 % 0 mm
21:49 13 °C 5.4 °C 1016.1 hPa SSW 11.1 km/h 6.6 km/h 60 % 0 mm
21:54 12.9 °C 5.3 °C 1016.1 hPa SSW 7.4 km/h 3.5 km/h 60 % 0 mm
21:59 12.9 °C 5.3 °C 1016.1 hPa SSW 5.6 km/h 5 km/h 60 % 0 mm
22:04 12.8 °C 5.5 °C 1016.1 hPa SSW 5.6 km/h 3.5 km/h 61 % 0 mm
22:09 12.7 °C 5.4 °C 1016.1 hPa SSW 5.6 km/h 4 km/h 61 % 0 mm
22:14 12.7 °C 5.6 °C 1016.1 hPa SSW 5.6 km/h 4 km/h 62 % 0 mm
22:19 12.6 °C 5.5 °C 1016.1 hPa SSW 5.6 km/h 4.5 km/h 62 % 0 mm
22:24 12.5 °C 5.4 °C 1016.1 hPa SSW 6.4 km/h 5.3 km/h 62 % 0 mm
22:29 12.4 °C 5.6 °C 1016.1 hPa SSW 6.4 km/h 5 km/h 63 % 0 mm
22:34 12.3 °C 5.5 °C 1016.5 hPa SSW 5.6 km/h 5 km/h 63 % 0 mm
22:39 12.2 °C 5.6 °C 1016.5 hPa SSW 7.4 km/h 6.4 km/h 64 % 0 mm
22:44 12.2 °C 5.6 °C 1016.5 hPa SSW 5.6 km/h 3.4 km/h 64 % 0 mm
22:49 12.1 °C 5.5 °C 1016.5 hPa SSW 9.3 km/h 5.3 km/h 64 % 0 mm
22:54 12.1 °C 5.7 °C 1016.5 hPa SSW 8 km/h 6.9 km/h 65 % 0 mm
22:59 12.1 °C 5.7 °C 1016.5 hPa SSW 11.1 km/h 7.6 km/h 65 % 0 mm
23:04 12.1 °C 5.9 °C 1016.5 hPa SSW 5.6 km/h 4.8 km/h 66 % 0 mm
23:09 12 °C 5.8 °C 1016.5 hPa SSW 7.4 km/h 6.4 km/h 66 % 0 mm
23:14 11.9 °C 6 °C 1016.5 hPa SSW 5.6 km/h 3.2 km/h 67 % 0 mm
23:19 11.8 °C 5.8 °C 1016.5 hPa SSW 7.4 km/h 4.3 km/h 67 % 0 mm
23:24 11.7 °C 5.9 °C 1016.5 hPa SSW 5.6 km/h 2.7 km/h 68 % 0 mm
23:29 11.6 °C 5.8 °C 1016.5 hPa SSW 4.8 km/h 2.7 km/h 68 % 0 mm
23:34 11.4 °C 5.7 °C 1016.5 hPa SSW 5.6 km/h 2.7 km/h 68 % 0 mm
23:39 11.3 °C 5.8 °C 1016.5 hPa SSW 5.6 km/h 4 km/h 69 % 0 mm
23:44 11.2 °C 5.7 °C 1016.5 hPa SSW 7.4 km/h 3.7 km/h 69 % 0 mm
23:49 11.1 °C 5.6 °C 1016.5 hPa SSW 1.9 km/h 0.2 km/h 69 % 0 mm
23:54 11 °C 5.5 °C 1016.5 hPa SSW 3.7 km/h 2.1 km/h 69 % 0 mm
23:59 10.8 °C 5.4 °C 1016.8 hPa SSW 3.7 km/h 1.3 km/h 69 % 0 mm
Ararat Weather
Compliments of Weather Underground - 2.5 mb
Click here to send mail.


ABOUT

Live weather data from Ararat, Victoria, Australia, 3377
Data uploaded from Cumulus every 5 minutes to Weather Underground.
This site then downloads the raw data for formatting and display.
Metric and imperial data can be displayed. Graphs and historical data available.
Includes Sun and Moon times and rain image live from BOM.

Check out Ararat Weather on Facebook, Twitter and Google +

Help support ongoing costs by checking out the ads





Follow @AraratWeather